createdAt,value
2018-05-09T00:01:44.405Z,4.63
2018-05-09T00:04:11.863Z,5.47
2018-05-09T00:06:39.474Z,3.53
2018-05-09T00:09:07.760Z,3.67
2018-05-09T00:11:36.034Z,5.27
2018-05-09T00:14:04.385Z,7.40
2018-05-09T00:16:31.853Z,3.97
2018-05-09T00:18:59.359Z,3.17
2018-05-09T00:21:26.831Z,3.50
2018-05-09T00:23:54.292Z,5.30
2018-05-09T00:26:21.786Z,4.90
2018-05-09T00:28:50.167Z,7.57
2018-05-09T00:31:18.405Z,7.10
2018-05-09T00:33:45.889Z,3.43
2018-05-09T00:36:14.168Z,9.87
2018-05-09T00:38:42.392Z,4.40
2018-05-09T00:41:09.870Z,5.53
2018-05-09T00:43:37.342Z,3.83
2018-05-09T00:46:04.825Z,3.57
2018-05-09T00:48:32.318Z,4.07
2018-05-09T00:50:59.782Z,5.20
2018-05-09T00:53:27.257Z,5.10
2018-05-09T00:55:54.737Z,6.13
2018-05-09T00:58:23.093Z,4.17
2018-05-09T01:00:50.588Z,4.77
2018-05-09T01:03:18.081Z,5.70
2018-05-09T01:05:45.563Z,5.13
2018-05-09T01:08:13.280Z,5.43
2018-05-09T01:10:40.777Z,7.40
2018-05-09T01:13:08.277Z,3.97
2018-05-09T01:15:36.706Z,4.20
2018-05-09T01:18:04.168Z,3.93
2018-05-09T01:20:31.784Z,6.30
2018-05-09T01:22:59.315Z,4.97
2018-05-09T01:25:27.557Z,4.87
2018-05-09T01:27:55.037Z,4.20
2018-05-09T01:30:23.297Z,4.90
2018-05-09T01:32:50.754Z,7.60
2018-05-09T01:35:18.235Z,3.97
2018-05-09T01:37:46.474Z,5.50
2018-05-09T01:40:14.204Z,5.97
2018-05-09T01:42:48.269Z,9.60
2018-05-09T01:45:21.459Z,4.10
2018-05-09T01:47:49.702Z,5.07
2018-05-09T01:50:17.182Z,4.73
2018-05-09T01:52:44.699Z,4.07
2018-05-09T01:55:12.172Z,4.80
2018-05-09T01:57:39.767Z,8.13
2018-05-09T02:00:08.127Z,4.43
2018-05-09T02:02:35.751Z,3.90
2018-05-09T02:05:03.209Z,6.10
2018-05-09T02:07:30.717Z,5.17
2018-05-09T02:09:58.966Z,4.20
2018-05-09T02:12:26.476Z,5.37
2018-05-09T02:14:54.078Z,5.47
2018-05-09T02:17:21.579Z,3.93
2018-05-09T02:19:49.049Z,7.40
2018-05-09T02:22:16.746Z,6.20
2018-05-09T02:24:44.274Z,5.47
2018-05-09T02:27:11.787Z,8.37
2018-05-09T02:29:40.054Z,5.83
2018-05-09T02:32:07.545Z,10.67
2018-05-09T02:34:35.031Z,7.70
2018-05-09T02:37:02.492Z,5.37
2018-05-09T02:39:29.973Z,6.97
2018-05-09T02:41:57.440Z,6.43
2018-05-09T02:44:25.678Z,6.77
2018-05-09T02:46:53.197Z,5.27
2018-05-09T02:49:20.686Z,6.70
2018-05-09T02:51:49.325Z,5.03
2018-05-09T02:54:17.579Z,5.07
2018-05-09T02:56:45.869Z,8.83
2018-05-09T02:59:14.129Z,5.67
2018-05-09T03:01:41.614Z,7.10
2018-05-09T03:04:09.108Z,7.77
2018-05-09T03:06:36.565Z,4.27
2018-05-09T03:09:04.084Z,8.00
2018-05-09T03:11:31.581Z,6.23
2018-05-09T03:13:59.041Z,6.83
2018-05-09T03:20:19.118Z,4.60
2018-05-09T03:27:30.381Z,6.30
2018-05-09T03:30:08.975Z,8.60
2018-05-09T03:32:44.931Z,7.27
2018-05-09T03:35:18.212Z,6.23
2018-05-09T05:00:14.347Z,8.27
2018-05-09T05:02:41.811Z,10.50
2018-05-09T05:05:09.309Z,11.40
2018-05-09T05:07:36.794Z,11.60
2018-05-09T05:10:04.263Z,8.57
2018-05-09T05:12:31.738Z,14.13
2018-05-09T05:14:59.224Z,10.03
2018-05-09T05:17:27.643Z,12.20
2018-05-09T05:19:55.134Z,10.27
2018-05-09T05:44:29.210Z,11.57
2018-05-09T05:46:56.693Z,9.73
2018-05-09T05:49:24.172Z,11.93
2018-05-09T05:51:51.654Z,11.63
2018-05-09T05:54:19.348Z,17.77
2018-05-09T05:56:46.984Z,11.17
2018-05-09T05:59:15.495Z,10.30
2018-05-09T06:01:43.137Z,12.57
2018-05-09T06:04:10.645Z,12.07
2018-05-09T06:06:38.188Z,11.40
2018-05-09T06:09:05.709Z,13.13
2018-05-09T06:11:33.250Z,9.47
2018-05-09T06:14:01.504Z,14.05
2018-05-09T06:16:28.978Z,7.43
2018-05-09T06:18:57.254Z,10.38
2018-05-09T06:21:25.649Z,8.80
2018-05-09T06:23:53.990Z,10.57
2018-05-09T06:26:21.462Z,6.60
2018-05-09T06:28:49.742Z,9.45
2018-05-09T06:31:18.152Z,8.77
2018-05-09T06:33:45.684Z,12.00
2018-05-09T06:36:15.581Z,11.77
2018-05-09T06:38:43.118Z,7.47
2018-05-09T06:41:10.648Z,11.60
2018-05-09T06:43:38.158Z,10.32
2018-05-09T06:46:05.607Z,11.90
2018-05-09T06:48:33.224Z,12.00
2018-05-09T06:51:00.701Z,10.52
2018-05-09T06:53:28.205Z,14.73
2018-05-09T06:55:55.668Z,11.57
2018-05-09T06:58:23.150Z,8.25
2018-05-09T07:00:50.670Z,13.38
2018-05-09T07:03:18.166Z,11.85
2018-05-09T07:05:45.651Z,7.12
2018-05-09T07:08:13.134Z,13.43
2018-05-09T07:10:47.514Z,7.93
2018-05-09T07:13:15.002Z,7.87
2018-05-09T07:15:43.249Z,10.52
2018-05-09T07:18:10.765Z,9.50
2018-05-09T07:20:38.256Z,6.47
2018-05-09T07:23:07.374Z,11.68
2018-05-09T07:25:35.648Z,11.38
2018-05-09T07:28:03.901Z,5.10
2018-05-09T07:30:31.366Z,8.93
2018-05-09T07:32:58.840Z,7.55
2018-05-09T07:35:27.217Z,9.90
2018-05-09T07:37:54.636Z,5.10
2018-05-09T07:40:22.190Z,7.53
2018-05-09T07:42:49.662Z,4.20
2018-05-09T07:45:17.160Z,6.72
2018-05-09T07:47:44.671Z,7.05
2018-05-09T07:50:12.904Z,5.65
2018-05-09T07:52:40.382Z,7.45
2018-05-09T07:55:07.856Z,5.57
2018-05-09T07:57:35.353Z,4.78
2018-05-09T08:00:03.604Z,7.47
2018-05-09T08:02:31.218Z,5.57
2018-05-09T08:04:58.699Z,11.32
2018-05-09T08:07:26.280Z,6.90
2018-05-09T08:09:53.762Z,5.37
2018-05-09T08:12:21.260Z,7.43
2018-05-09T08:14:48.753Z,10.05
2018-05-09T08:17:17.038Z,4.43
2018-05-09T08:19:45.303Z,6.22
2018-05-09T08:22:13.541Z,7.35
2018-05-09T08:24:41.049Z,11.82
2018-05-09T08:27:09.308Z,5.37
2018-05-09T08:29:38.446Z,8.48
2018-05-09T08:32:05.922Z,4.30
2018-05-09T08:34:33.416Z,4.75
2018-05-09T08:37:01.664Z,4.70
2018-05-09T08:39:29.171Z,7.45
2018-05-09T08:41:56.755Z,6.95
2018-05-09T08:44:24.261Z,7.82
2018-05-09T08:46:52.525Z,10.73
2018-05-09T08:49:20.079Z,4.78
2018-05-09T08:51:47.588Z,8.07
2018-05-09T08:54:15.104Z,4.85
2018-05-09T08:56:43.376Z,6.85
2018-05-09T08:59:10.893Z,6.05
2018-05-09T09:01:38.374Z,4.97
2018-05-09T09:04:05.867Z,7.70
2018-05-09T09:06:34.254Z,6.32
2018-05-09T09:09:01.633Z,7.43
2018-05-09T09:11:29.129Z,6.87
2018-05-09T09:13:56.644Z,7.03
2018-05-09T09:16:24.132Z,5.95
2018-05-09T09:18:51.695Z,5.20
2018-05-09T09:21:20.147Z,9.23
2018-05-09T09:23:47.687Z,6.95
2018-05-09T09:26:15.163Z,6.32
2018-05-09T09:28:42.799Z,6.35
2018-05-09T09:31:10.283Z,6.28
2018-05-09T09:33:37.784Z,6.45
2018-05-09T09:36:06.010Z,6.57
2018-05-09T09:38:33.498Z,6.03
2018-05-09T09:41:01.739Z,5.47
2018-05-09T09:43:29.206Z,8.10
2018-05-09T09:45:56.669Z,7.35
2018-05-09T09:48:24.922Z,7.62
2018-05-09T09:50:52.393Z,7.80
2018-05-09T09:53:19.891Z,5.37
2018-05-09T09:55:47.475Z,5.07
2018-05-09T09:58:14.967Z,5.78
2018-05-09T10:00:42.428Z,6.30
2018-05-09T10:03:10.668Z,7.47
2018-05-09T10:05:38.137Z,4.82
2018-05-09T10:08:05.675Z,8.10
2018-05-09T10:10:33.364Z,11.57
2018-05-09T10:13:00.831Z,10.20
2018-05-09T10:15:28.320Z,6.60
2018-05-09T10:17:56.563Z,6.05
2018-05-09T10:20:24.052Z,6.03
2018-05-09T10:22:52.303Z,6.97
2018-05-09T10:25:19.844Z,4.82
2018-05-09T10:27:47.334Z,4.47
2018-05-09T10:30:15.584Z,5.97
2018-05-09T10:32:43.837Z,3.90
2018-05-09T10:35:11.338Z,7.00
2018-05-09T10:37:39.616Z,4.78
2018-05-09T10:40:07.898Z,4.15
2018-05-09T10:42:35.398Z,3.53
2018-05-09T10:45:02.985Z,5.53
2018-05-09T10:47:31.433Z,5.40
2018-05-09T10:49:58.893Z,6.18
2018-05-09T10:52:26.357Z,5.20
2018-05-09T10:54:53.848Z,6.43
2018-05-09T10:57:21.573Z,4.45
2018-05-09T10:59:49.061Z,4.62
2018-05-09T11:02:17.468Z,4.03
2018-05-09T11:04:45.033Z,5.97
2018-05-09T11:07:12.588Z,5.50
2018-05-09T11:09:40.045Z,7.10
2018-05-09T11:12:09.819Z,6.40
2018-05-09T11:14:37.776Z,5.63
2018-05-09T11:17:05.493Z,7.23
2018-05-09T11:19:32.962Z,6.40
2018-05-09T11:22:00.476Z,7.27
2018-05-09T11:24:29.231Z,5.80
2018-05-09T11:26:56.969Z,7.07
2018-05-09T11:29:24.514Z,6.30
2018-05-09T11:31:52.014Z,6.60
2018-05-09T11:34:19.477Z,6.33
2018-05-09T11:36:47.780Z,5.13
2018-05-09T11:39:15.451Z,5.97
2018-05-09T11:41:42.937Z,6.90
2018-05-09T11:44:10.425Z,5.10
2018-05-09T11:46:37.896Z,6.10
2018-05-09T11:49:06.168Z,5.53
2018-05-09T11:51:34.389Z,5.57
2018-05-09T11:54:01.869Z,4.60
2018-05-09T11:56:29.331Z,6.40
2018-05-09T11:58:56.797Z,7.20
2018-05-09T12:01:24.266Z,5.00
2018-05-09T12:03:52.609Z,5.40
2018-05-09T12:06:20.226Z,6.63
2018-05-09T12:08:47.757Z,6.47
2018-05-09T12:11:16.166Z,8.33
2018-05-09T12:13:44.347Z,5.87
2018-05-09T12:16:11.830Z,8.17
2018-05-09T12:18:39.367Z,5.43
2018-05-09T12:21:06.858Z,6.37
2018-05-09T12:23:34.320Z,4.50
2018-05-09T12:26:03.570Z,3.80
2018-05-09T12:28:31.074Z,4.07
2018-05-09T12:30:58.574Z,3.57
2018-05-09T12:33:26.039Z,6.43
2018-05-09T12:35:53.549Z,7.40
2018-05-09T12:38:21.903Z,7.97
2018-05-09T12:40:49.550Z,6.70
2018-05-09T12:43:17.381Z,4.40
2018-05-09T12:45:44.881Z,6.20
2018-05-09T12:48:12.453Z,5.83
2018-05-09T12:50:40.027Z,5.70
2018-05-09T12:53:08.261Z,3.57
2018-05-09T12:55:35.766Z,5.87
2018-05-09T12:58:04.036Z,3.57
2018-05-09T13:00:32.317Z,4.80
2018-05-09T13:03:01.622Z,6.97
2018-05-09T13:05:29.115Z,3.87
2018-05-09T13:07:56.591Z,5.40
2018-05-09T13:10:24.064Z,5.13
2018-05-09T13:12:51.618Z,7.47
2018-05-09T13:15:19.848Z,6.87
2018-05-09T13:17:47.356Z,5.13
2018-05-09T13:20:14.814Z,5.20
2018-05-09T13:22:43.092Z,4.63
2018-05-09T13:25:11.315Z,4.40
2018-05-09T13:27:38.806Z,5.17
2018-05-09T13:30:06.292Z,4.00
2018-05-09T13:32:34.801Z,7.10
2018-05-09T13:35:02.324Z,7.20
2018-05-09T13:37:30.569Z,4.90
2018-05-09T13:39:58.159Z,6.37
2018-05-09T13:42:25.600Z,6.13
2018-05-09T13:44:53.971Z,8.43
2018-05-09T13:47:21.603Z,6.17
2018-05-09T13:49:49.079Z,8.00
2018-05-09T13:52:17.325Z,3.50
2018-05-09T13:54:45.522Z,5.27
2018-05-09T13:57:13.003Z,3.47
2018-05-09T13:59:41.448Z,6.43
2018-05-09T14:02:08.960Z,6.67
2018-05-09T14:04:36.455Z,5.70
2018-05-09T14:07:03.917Z,4.83
2018-05-09T14:09:31.422Z,6.33
2018-05-09T14:11:58.993Z,6.40
2018-05-09T14:14:26.494Z,5.33
2018-05-09T14:16:53.982Z,6.37
2018-05-09T14:19:22.280Z,5.57
2018-05-09T14:21:49.754Z,5.43
2018-05-09T14:24:17.249Z,6.27
2018-05-09T14:26:44.722Z,4.43
2018-05-09T14:29:12.972Z,6.07
2018-05-09T14:31:40.462Z,4.50
2018-05-09T14:34:07.959Z,5.40
2018-05-09T14:36:35.602Z,3.47
2018-05-09T14:39:03.179Z,4.93
2018-05-09T14:41:30.685Z,5.37
2018-05-09T14:43:58.931Z,6.27
2018-05-09T14:46:26.494Z,8.13
2018-05-09T14:49:03.950Z,5.63
2018-05-09T14:51:31.832Z,6.60
2018-05-09T14:54:00.142Z,5.90
2018-05-09T14:56:28.368Z,5.83
2018-05-09T14:58:55.840Z,6.67
2018-05-09T15:01:23.353Z,6.03
2018-05-09T15:03:51.001Z,6.80
2018-05-09T15:06:19.274Z,4.60
2018-05-09T15:08:46.760Z,4.60
2018-05-09T15:11:14.328Z,7.83
2018-05-09T15:13:41.843Z,6.57
2018-05-09T15:16:10.118Z,6.93
2018-05-09T15:18:38.461Z,10.43
2018-05-09T15:21:05.955Z,4.80
2018-05-09T15:23:34.186Z,6.57
2018-05-09T15:26:01.642Z,5.30
2018-05-09T15:28:29.154Z,5.03
2018-05-09T15:30:56.637Z,7.17
2018-05-09T15:33:24.153Z,7.50
2018-05-09T15:35:52.505Z,4.67
2018-05-09T15:38:19.998Z,4.50
2018-05-09T15:40:47.534Z,9.47
2018-05-09T15:43:15.895Z,4.57
2018-05-09T15:45:44.931Z,5.97
2018-05-09T15:48:14.638Z,7.23
2018-05-09T15:50:42.102Z,6.07
2018-05-09T15:53:09.861Z,5.10
2018-05-09T15:55:37.342Z,7.57
2018-05-09T15:58:06.014Z,5.27
2018-05-09T16:00:34.675Z,8.03
2018-05-09T16:03:02.154Z,6.03
2018-05-09T16:05:29.638Z,6.57
2018-05-09T16:07:57.109Z,5.37
2018-05-09T16:10:24.685Z,5.53
2018-05-09T16:12:52.174Z,6.87
2018-05-09T16:15:19.668Z,4.00
2018-05-09T16:17:47.147Z,6.13
2018-05-09T16:20:15.449Z,4.00
2018-05-09T16:22:43.095Z,6.87
2018-05-09T16:25:10.795Z,6.87
2018-05-09T16:27:38.274Z,5.53
2018-05-09T16:30:05.825Z,4.77
2018-05-09T16:32:33.555Z,6.50
2018-05-09T16:35:01.115Z,8.30
2018-05-09T16:37:29.183Z,7.70
2018-05-09T16:39:56.681Z,4.07
2018-05-09T16:42:24.242Z,8.07
2018-05-09T16:44:51.707Z,6.17
2018-05-09T16:47:20.957Z,7.03
2018-05-09T16:49:48.479Z,10.73
2018-05-09T16:52:16.760Z,11.47
2018-05-09T16:54:45.020Z,11.87
2018-05-09T16:57:13.280Z,5.43
2018-05-09T16:59:40.789Z,7.47
2018-05-09T17:02:08.324Z,5.57
2018-05-09T17:04:35.827Z,6.23
2018-05-09T17:07:03.391Z,9.60
2018-05-09T17:09:31.089Z,5.23
2018-05-09T17:11:59.382Z,4.87
2018-05-09T17:14:26.874Z,6.07
2018-05-09T17:16:54.484Z,6.60
2018-05-09T17:19:22.715Z,9.47
2018-05-09T17:22:07.795Z,6.70
2018-05-09T17:24:35.277Z,6.33
2018-05-09T17:27:03.529Z,9.83
2018-05-09T17:29:31.000Z,9.30
2018-05-09T17:31:59.270Z,5.07
2018-05-09T17:34:26.755Z,5.90
2018-05-09T17:36:54.325Z,7.57
2018-05-09T17:39:22.537Z,4.93
2018-05-09T17:41:50.043Z,8.90
2018-05-09T17:44:17.522Z,7.83
2018-05-09T17:46:45.027Z,9.70
2018-05-09T17:49:12.522Z,8.20
2018-05-09T17:51:40.042Z,6.80
2018-05-09T17:54:07.523Z,7.13
2018-05-09T17:56:35.026Z,8.60
2018-05-09T17:59:02.732Z,7.70
2018-05-09T18:01:30.982Z,7.07
2018-05-09T18:03:58.544Z,8.80
2018-05-09T18:06:25.954Z,8.67
2018-05-09T18:08:53.429Z,9.97
2018-05-09T18:11:20.902Z,12.23
2018-05-09T18:13:48.375Z,25.63
2018-05-09T18:16:16.629Z,22.77
2018-05-09T18:18:44.106Z,21.63
2018-05-09T18:21:12.513Z,14.87
2018-05-09T18:23:39.973Z,12.83
2018-05-09T18:26:07.475Z,10.23
2018-05-09T18:28:34.936Z,10.30
2018-05-09T18:31:02.444Z,9.30
2018-05-09T18:33:29.990Z,9.77
2018-05-09T18:35:57.407Z,10.13
2018-05-09T18:38:24.879Z,10.40
2018-05-09T18:40:53.142Z,11.37
2018-05-09T18:43:20.612Z,7.63
2018-05-09T18:45:48.879Z,7.37
2018-05-09T18:48:16.924Z,6.77
2018-05-09T18:50:44.781Z,9.83
2018-05-09T18:53:12.347Z,9.17
2018-05-09T18:55:39.862Z,6.83
2018-05-09T18:58:07.429Z,10.23
2018-05-09T19:00:34.956Z,6.53
2018-05-09T19:03:03.394Z,6.40
2018-05-09T19:05:30.868Z,11.83
2018-05-09T19:07:58.375Z,5.80
2018-05-09T19:10:25.842Z,9.33
2018-05-09T19:12:54.706Z,8.73
2018-05-09T19:15:22.946Z,8.17
2018-05-09T19:17:50.441Z,10.13
2018-05-09T19:20:17.921Z,9.60
2018-05-09T19:22:45.433Z,7.80
2018-05-09T19:25:13.670Z,9.63
2018-05-09T19:27:42.032Z,7.30
2018-05-09T19:30:09.588Z,8.57
2018-05-09T19:32:43.697Z,7.87
2018-05-09T19:35:11.154Z,11.10
2018-05-09T19:37:38.643Z,12.27
2018-05-09T19:40:06.127Z,10.63
2018-05-09T19:42:35.301Z,10.63
2018-05-09T19:45:02.771Z,10.63
2018-05-09T19:47:31.014Z,6.33
2018-05-09T19:49:58.521Z,9.37
2018-05-09T19:52:26.124Z,7.97
2018-05-09T19:54:53.655Z,8.30
2018-05-09T19:57:21.139Z,10.80
2018-05-09T19:59:48.622Z,8.03
2018-05-09T20:02:16.114Z,9.53
2018-05-09T20:04:43.604Z,6.27
2018-05-09T20:07:11.077Z,8.33
2018-05-09T20:09:38.587Z,7.70
2018-05-09T20:12:06.862Z,6.37
2018-05-09T20:14:34.352Z,7.37
2018-05-09T20:17:01.829Z,8.50
2018-05-09T20:19:29.433Z,10.47
2018-05-09T20:21:56.918Z,14.70
2018-05-09T20:24:24.456Z,10.40
2018-05-09T20:26:52.104Z,8.87
2018-05-09T20:29:19.590Z,12.97
2018-05-09T20:31:59.292Z,10.27
2018-05-09T20:34:26.805Z,7.37
2018-05-09T20:36:54.310Z,9.93
2018-05-09T20:39:21.914Z,8.13
2018-05-09T20:41:49.433Z,11.37
2018-05-09T20:44:16.919Z,11.80
2018-05-09T20:46:44.423Z,11.33
2018-05-09T20:49:12.665Z,7.03
2018-05-09T20:51:50.655Z,10.57
2018-05-09T20:54:18.142Z,9.77
2018-05-09T20:56:46.410Z,11.93
2018-05-09T20:59:14.072Z,11.60
2018-05-09T21:01:47.504Z,13.73
2018-05-09T21:04:15.722Z,10.30
2018-05-09T21:06:43.512Z,10.87
2018-05-09T21:09:11.972Z,12.90
2018-05-09T21:11:39.501Z,12.53
2018-05-09T21:14:07.062Z,14.47
2018-05-09T21:16:34.530Z,16.20
2018-05-09T21:19:02.004Z,18.07
2018-05-09T21:21:29.659Z,22.47
2018-05-09T21:23:58.627Z,25.20
2018-05-09T21:26:26.147Z,28.03
2018-05-09T21:28:55.010Z,23.60
2018-05-09T21:31:22.550Z,27.53
2018-05-09T21:33:50.053Z,33.17
2018-05-09T21:36:17.547Z,28.10
2018-05-09T21:38:45.060Z,27.67
2018-05-09T21:41:12.844Z,30.40
2018-05-09T21:43:40.335Z,25.57
2018-05-09T21:46:07.865Z,27.30
2018-05-09T21:48:35.344Z,26.40
2018-05-09T21:51:02.931Z,27.23
2018-05-09T21:53:30.425Z,30.07
2018-05-09T21:55:57.948Z,30.47
2018-05-09T21:58:25.457Z,30.03
2018-05-09T22:00:53.064Z,28.63
2018-05-09T22:03:21.340Z,27.23
2018-05-09T22:05:49.685Z,30.40
2018-05-09T22:08:17.400Z,28.37
2018-05-09T22:10:44.978Z,33.27
2018-05-09T22:13:12.473Z,30.37
2018-05-09T22:15:39.973Z,34.50
2018-05-09T22:18:07.492Z,31.33
2018-05-09T22:20:37.887Z,36.57
2018-05-09T22:23:05.430Z,30.87
2018-05-09T22:25:33.673Z,27.53
2018-05-09T22:28:01.903Z,31.83
2018-05-09T22:30:29.585Z,29.07
2018-05-09T22:32:57.122Z,33.07
2018-05-09T22:35:24.773Z,34.23
2018-05-09T22:37:52.316Z,30.27
2018-05-09T22:40:19.872Z,31.67
2018-05-09T22:42:47.343Z,34.70
2018-05-09T22:45:14.841Z,28.77
2018-05-09T22:47:43.082Z,31.10
2018-05-09T22:50:10.810Z,32.07
2018-05-09T22:52:38.282Z,33.27
2018-05-09T22:55:05.754Z,34.17
2018-05-09T22:57:33.234Z,30.10
2018-05-09T23:00:00.734Z,35.60
2018-05-09T23:02:28.222Z,33.30
2018-05-09T23:04:55.871Z,29.90
2018-05-09T23:07:23.365Z,32.43
2018-05-09T23:09:52.465Z,38.77
2018-05-09T23:12:20.708Z,38.37
2018-05-09T23:14:48.193Z,33.17
2018-05-09T23:17:15.749Z,33.10
2018-05-09T23:19:43.244Z,37.13
2018-05-09T23:22:10.790Z,33.37
2018-05-09T23:24:38.281Z,39.90
2018-05-09T23:27:05.798Z,39.70
2018-05-09T23:29:34.037Z,42.50
2018-05-09T23:32:01.555Z,43.30
2018-05-09T23:34:29.068Z,45.87
2018-05-09T23:36:56.571Z,37.47
2018-05-09T23:39:24.106Z,35.63
2018-05-09T23:41:52.313Z,39.07
2018-05-09T23:44:19.834Z,34.90
2018-05-09T23:46:48.066Z,36.57
2018-05-09T23:49:15.554Z,38.93
2018-05-09T23:51:43.790Z,40.83
2018-05-09T23:54:11.289Z,38.07
2018-05-09T23:56:39.529Z,43.47
2018-05-09T23:59:06.997Z,41.43
